Airfield :
LOGIN :

Register | Disclaimer

   EN    FR    IT 

 










Legend :    VFR   Marginal VFR   IFR   Intensive IFR   Very Intensive IFR
Visi :
Ceiling :
>= 8 km
>= 3000ft
5 to 8 km
1000 to 3000 ft
1500m to 5 km
500 to 1000 ft
800 to 1500m
200 to 500 ft
< 800m
< 200 ft
Symbols :   Thunderstorms  Fog  Heavy snow  Heavy precipitations  Wind > 20 kt
SIGMETs :     Misc.  Thunderstorms  Icing  Turbulence  Mountain Waves  Volcanic Ashes






- Airport Elevation : 1106 ft


LFSO - Nancy / Ochey

CURRENT METAR :
  • 201330Z AUTO 30010KT 9999 BKN011 BKN017 BKN024 03/03 Q1028 TEMPO 2000 -SHRASN BKN008

EXPIRED METARs :
  • 201300Z AUTO 30010KT 9999 OVC014 04/02 Q1028 TEMPO 2000 -SHRASN BKN008
  • 201230Z AUTO 30010KT 270V330 9999 BKN014 OVC021 03/02 Q1028 TEMPO 2000 -SHRASN BKN008
  • 201200Z AUTO 30011KT 9999 BKN015 BKN021 03/01 Q1029 TEMPO 2000 -SHRASN BKN008
  • 201130Z AUTO 29011KT 260V320 9999 BKN011 OVC022 04/01 Q1028 TEMPO 2000 -SHRASN BKN008
  • 201100Z AUTO 29011KT 9999 SCT010 04/02 Q1029 TEMPO 2000 -SHRASN BKN008

TAF AMD TAF LFSO
Valid from the 20 at 10:00 until the 21 at 09:00 UTC


201008Z 2010/2109 29008KT 9999 FEW010 BKN030
BECMG 2012/2014 BKN012
TEMPO 2012/2020 2000 -SHRASN BKN008
BECMG 2020/2022 BKN003 OVC008
TEMPO 2102/2109 3000 BR BKN002



MET'MAP, your aeronautical weather chart ! - Copyright ORBIFLY December 2007 - Disclaimer

ORBIFLY MET'MAP TEAM :

Programming & Development : Alexandra Zaïnal
Concept & original design : Baudouin d'Aumeries
Assistance for programming : Marc-Olivier Méhu
Technical & hardware support : Manuel Goepfert

Contact : metmap@orbifly.com




SOURCES & CREDITS :

   NOAA